createdAt,value
2023-03-08T00:00:54.481Z,16.72
2023-03-08T00:06:57.530Z,16.66
2023-03-08T00:13:00.540Z,16.54
2023-03-08T00:19:03.539Z,16.66
2023-03-08T00:25:08.880Z,16.78
2023-03-08T00:31:13.513Z,16.75
2023-03-08T00:37:16.396Z,16.79
2023-03-08T00:43:22.260Z,17.11
2023-03-08T00:49:25.199Z,16.86
2023-03-08T00:55:28.017Z,16.91
2023-03-08T01:01:34.111Z,17.08
2023-03-08T01:07:37.267Z,17.03
2023-03-08T01:13:40.459Z,17.18
2023-03-08T01:19:43.876Z,16.95
2023-03-08T01:25:46.834Z,16.69
2023-03-08T01:31:49.790Z,16.70
2023-03-08T01:37:55.400Z,16.76
2023-03-08T01:43:58.416Z,16.74
2023-03-08T01:50:06.469Z,16.24
2023-03-08T01:56:12.113Z,16.50
2023-03-08T02:02:18.171Z,16.60
2023-03-08T02:08:22.665Z,16.13
2023-03-08T02:14:27.215Z,15.99
2023-03-08T02:20:32.882Z,15.31
2023-03-08T02:26:41.969Z,15.56
2023-03-08T02:32:44.886Z,15.62
2023-03-08T02:38:47.790Z,15.52
2023-03-08T02:44:50.677Z,15.06
2023-03-08T02:50:53.694Z,15.01
2023-03-08T02:56:59.334Z,14.54
2023-03-08T03:03:02.410Z,14.30
2023-03-08T03:09:11.333Z,14.18
2023-03-08T03:15:14.730Z,14.65
2023-03-08T03:21:18.110Z,14.47
2023-03-08T03:27:21.077Z,14.37
2023-03-08T03:33:24.695Z,14.35
2023-03-08T03:39:34.617Z,14.23
2023-03-08T03:45:38.565Z,14.26
2023-03-08T03:51:41.586Z,14.40
2023-03-08T03:57:58.300Z,14.41
2023-03-08T04:04:01.808Z,14.43
2023-03-08T04:10:06.807Z,14.04
2023-03-08T04:16:15.544Z,14.07
2023-03-08T04:22:22.530Z,14.16
2023-03-08T04:28:33.881Z,14.49
2023-03-08T04:34:37.625Z,14.35
2023-03-08T04:41:02.723Z,14.25
2023-03-08T04:47:11.984Z,14.32
2023-03-08T04:53:20.419Z,14.04
2023-03-08T04:59:23.418Z,13.96
2023-03-08T05:05:26.703Z,14.30
2023-03-08T05:11:30.661Z,14.10
2023-03-08T05:17:34.187Z,14.48
2023-03-08T05:23:37.499Z,14.56
2023-03-08T05:29:40.541Z,14.32
2023-03-08T05:35:43.937Z,14.97
2023-03-08T05:41:47.065Z,14.65
2023-03-08T05:47:51.840Z,14.93
2023-03-08T05:53:54.783Z,15.01
2023-03-08T05:59:58.166Z,15.05
2023-03-08T06:06:01.622Z,15.04
2023-03-08T06:12:06.033Z,15.17
2023-03-08T06:18:09.233Z,15.25
2023-03-08T06:24:12.595Z,15.81
2023-03-08T06:30:15.739Z,15.54
2023-03-08T06:36:20.779Z,15.95
2023-03-08T06:42:39.706Z,15.68
2023-03-08T06:48:43.776Z,15.60
2023-03-08T06:54:46.771Z,15.73
2023-03-08T07:00:50.055Z,16.43
2023-03-08T07:06:53.039Z,16.25
2023-03-08T07:12:56.313Z,16.41
2023-03-08T07:19:03.186Z,16.57
2023-03-08T07:25:08.947Z,16.27
2023-03-08T07:31:13.009Z,16.79
2023-03-08T07:37:17.931Z,16.64
2023-03-08T07:43:20.944Z,16.60
2023-03-08T07:49:33.628Z,15.99
2023-03-08T07:55:37.662Z,16.18
2023-03-08T08:01:43.150Z,15.75
2023-03-08T08:07:48.099Z,15.95
2023-03-08T08:13:51.052Z,16.71
2023-03-08T08:19:54.302Z,16.57
2023-03-08T08:25:57.939Z,16.50
2023-03-08T08:32:03.121Z,16.29
2023-03-08T08:38:06.086Z,16.09
2023-03-08T08:44:09.491Z,16.06
2023-03-08T08:50:14.122Z,16.34
2023-03-08T08:56:26.606Z,16.13
2023-03-08T09:02:30.922Z,16.42
2023-03-08T09:08:33.995Z,16.50
2023-03-08T09:14:36.964Z,16.93
2023-03-08T09:20:39.981Z,17.06
2023-03-08T09:26:43.362Z,17.21
2023-03-08T09:32:46.533Z,16.47
2023-03-08T09:38:54.101Z,17.54
2023-03-08T09:45:02.319Z,17.02
2023-03-08T09:51:11.262Z,16.86
2023-03-08T09:57:18.336Z,17.51
2023-03-08T10:03:48.813Z,17.92
2023-03-08T10:10:10.308Z,18.57
2023-03-08T10:16:20.806Z,18.35
2023-03-08T10:22:32.402Z,18.68
2023-03-08T10:28:35.459Z,18.63
2023-03-08T10:34:38.871Z,18.50
2023-03-08T10:40:41.783Z,18.38
2023-03-08T10:46:48.856Z,18.58
2023-03-08T10:52:52.521Z,18.56
2023-03-08T10:58:57.619Z,19.17
2023-03-08T11:05:01.115Z,18.69
2023-03-08T11:11:08.162Z,18.44
2023-03-08T11:17:18.110Z,18.61
2023-03-08T11:24:00.599Z,19.40
2023-03-08T11:30:06.663Z,18.89
2023-03-08T11:36:24.638Z,19.60
2023-03-08T11:42:42.001Z,19.58
2023-03-08T11:49:07.187Z,19.65
2023-03-08T11:55:52.440Z,20.01
2023-03-08T12:02:05.105Z,20.45
2023-03-08T12:08:14.671Z,20.44
2023-03-08T12:14:33.659Z,20.06
2023-03-08T12:20:46.360Z,19.67
2023-03-08T12:27:16.360Z,19.69
2023-03-08T12:33:20.032Z,20.34
2023-03-08T12:39:31.181Z,20.91
2023-03-08T12:45:34.611Z,21.20
2023-03-08T12:51:40.361Z,21.34
2023-03-08T12:57:52.063Z,21.04
2023-03-08T13:03:55.660Z,20.95
2023-03-08T13:10:00.732Z,21.13
2023-03-08T13:16:17.065Z,21.88
2023-03-08T13:22:25.311Z,22.07
2023-03-08T13:28:46.163Z,21.97
2023-03-08T13:35:04.923Z,22.06
2023-03-08T13:41:07.977Z,22.10
2023-03-08T13:47:33.563Z,22.15
2023-03-08T13:53:37.552Z,22.44
2023-03-08T13:59:48.037Z,22.07
2023-03-08T14:05:51.048Z,22.04
2023-03-08T14:12:00.014Z,22.02
2023-03-08T14:18:04.797Z,22.06
2023-03-08T14:24:21.586Z,21.93
2023-03-08T14:30:30.136Z,21.66
2023-03-08T14:36:33.975Z,21.67
2023-03-08T14:42:45.818Z,21.18
2023-03-08T14:48:58.101Z,21.39
2023-03-08T14:55:22.510Z,20.49
2023-03-08T15:01:36.730Z,20.65
2023-03-08T15:07:40.154Z,20.21
2023-03-08T15:13:45.992Z,20.27
2023-03-08T15:19:48.993Z,20.83
2023-03-08T15:25:52.588Z,20.76
2023-03-08T15:31:56.068Z,20.04
2023-03-08T15:37:59.376Z,19.63
2023-03-08T15:44:02.374Z,19.66
2023-03-08T15:50:07.418Z,19.73
2023-03-08T15:56:10.471Z,19.29
2023-03-08T16:02:15.843Z,19.35
2023-03-08T16:08:19.223Z,19.48
2023-03-08T16:14:22.050Z,19.37
2023-03-08T16:20:27.964Z,19.44
2023-03-08T16:26:31.304Z,19.16
2023-03-08T16:32:34.487Z,19.35
2023-03-08T16:38:37.569Z,19.11
2023-03-08T16:44:41.844Z,19.00
2023-03-08T16:51:03.441Z,18.88
2023-03-08T16:57:18.685Z,18.93
2023-03-08T17:03:22.504Z,18.77
2023-03-08T17:09:27.818Z,18.47
2023-03-08T17:15:31.374Z,18.35
2023-03-08T17:21:38.338Z,18.06
2023-03-08T17:27:42.047Z,18.51
2023-03-08T17:33:45.314Z,18.60
2023-03-08T17:39:48.672Z,18.50
2023-03-08T17:46:04.925Z,18.39
2023-03-08T17:52:08.198Z,18.53
2023-03-08T17:58:12.011Z,18.34
2023-03-08T18:04:22.294Z,18.31
2023-03-08T18:10:26.957Z,18.19
2023-03-08T18:16:32.595Z,17.89
2023-03-08T18:22:38.538Z,17.83
2023-03-08T18:28:42.346Z,17.72
2023-03-08T18:34:45.953Z,17.88
2023-03-08T18:40:49.032Z,17.83
2023-03-08T18:46:52.668Z,17.96
2023-03-08T18:52:58.120Z,17.96
2023-03-08T18:59:04.396Z,18.24
2023-03-08T19:05:11.124Z,18.00
2023-03-08T19:11:17.272Z,17.98
2023-03-08T19:17:20.678Z,17.91
2023-03-08T19:23:26.463Z,17.81
2023-03-08T19:29:33.148Z,17.62
2023-03-08T19:35:36.431Z,17.85
2023-03-08T19:41:42.584Z,17.42
2023-03-08T19:47:46.062Z,17.69
2023-03-08T19:53:49.307Z,17.67
2023-03-08T19:59:53.166Z,17.77
2023-03-08T20:06:07.953Z,17.97
2023-03-08T20:12:14.261Z,17.79
2023-03-08T20:18:31.958Z,17.82
2023-03-08T20:24:57.357Z,17.80
2023-03-08T20:31:09.825Z,17.76
2023-03-08T20:37:16.993Z,17.67
2023-03-08T20:43:21.210Z,17.67
2023-03-08T20:49:26.558Z,17.72
2023-03-08T20:55:29.964Z,17.94
2023-03-08T21:01:36.167Z,17.83
2023-03-08T21:07:39.635Z,17.96
2023-03-08T21:13:43.300Z,17.88
2023-03-08T21:19:46.404Z,17.48
2023-03-08T21:25:51.348Z,17.42
2023-03-08T21:31:54.672Z,17.60
2023-03-08T21:37:59.975Z,17.60
2023-03-08T21:44:05.120Z,17.24
2023-03-08T21:50:09.995Z,17.53
2023-03-08T21:56:16.880Z,17.47
2023-03-08T22:02:20.159Z,17.45
2023-03-08T22:08:25.942Z,17.43
2023-03-08T22:14:29.279Z,17.45
2023-03-08T22:20:35.489Z,17.67
2023-03-08T22:26:38.538Z,17.57
2023-03-08T22:32:42.201Z,17.46
2023-03-08T22:38:45.549Z,17.52
2023-03-08T22:44:48.508Z,17.52
2023-03-08T22:51:01.586Z,17.43
2023-03-08T22:57:13.906Z,17.46
2023-03-08T23:03:17.104Z,17.88
2023-03-08T23:09:24.860Z,18.30
2023-03-08T23:15:28.202Z,18.47
2023-03-08T23:21:32.019Z,18.77
2023-03-08T23:27:35.112Z,18.90
2023-03-08T23:33:40.809Z,18.88
2023-03-08T23:39:44.032Z,18.90
2023-03-08T23:45:47.049Z,18.88
2023-03-08T23:51:52.868Z,18.91
2023-03-08T23:58:01.306Z,19.10
